GMTN  Saniat Rmel Airport

Add Bookmark

Morocco

Status IATA
Operational TTU
Latitude Longitude
35° 35' 39" N 5° 19' 12" W
35.594299 -5.320020
Local (DST + 1) UTC (GMT 0)
Feb 28, 2015 06:49 Feb 28, 2015 06:49
Sunrise-Sunset Local UTC
Begin Civil Twilight 06:25 06:25
Sunrise 06:50 06:50
Sunset 06:16 18:16
End Civil Twilight 06:42 18:42

Current Weather

METAR Observed
GMTN 280600Z AUTO 26015KT 230V300 9999NDV /// 14/07 Q1023 Sat, Feb 28, 2015 @ 06:00 UTC
(49 Minutes ago)
Wind Conditions
260° at 15 knots (28 kph)
  • No significant weather
Temperatures Readings Precipitation
Current Temp 14°C (57°F)
Dewpoint 7°C (45°F)
Humidity 63%
Altimeter 30.21"Hg
Sea Level Pressure 1023mb
Field Elevation 32.81'
None Recorded

Additional weather within a 92.6km radius of GMTN

Map ICAO Location
GMTT 55.9km W (285°)
LXGB 61.9km N (360°)

24 Hour Weather History

Loading
-

24 Hour Weather Graphs

Loading
-

CheckWX.com is intended as a tool to help pilots better visualize weather data. It is not intended as a substitute for an official weather briefing obtained from a Flight Service Station. CheckWX.com does not meet the FAA requirements for an official pre-flight weather briefing. Therefore, it's important that pilots still call and obtain an official FSS pre-flight weather briefing.